Scroll down
FLIGHT INFORMATION
Alaska Airlines

ASA955

At Arrival Gate

KLAS
 KSEA
DATE: 2019-11-07
GATE: E14
GATE DEPARTURE: 03:21
TAKEOFF: 03:31
DATE: 2019-11-07
GATE:  -
LANDING: 05:49
GATE ARRIVAL: 05:56
FLIGHT DATA
Crew: 
Speed: 
462 kts
Altitude: 
36,015 ft
Stage Length: 
753.4 nm
Block Time: 
2.5 hrs
Flight Time: 
2.3 hrs
Fuel Used: 
13,750 lb
Cleared Route: 
TRACK DATA
50,000 ft 1,000 kts
AIRCRAFT INFO AND CUMULATIVE STATS
Aircraft Type: 
B739SSW
Registration: 
SELCAL: 
MSN/LN: 
33679 / 1344
Operator: 
Total Flights: 
14
Total Block Time: 
20 hrs
Total Flight Time: 
16.9 hrs
Total Fuel Used: 
142,026 lb
DATALINK LOG | Newest first | Current as of: 2022-09-28 21:28:25
LABEL SEQUENCE CONTENT Dn/Up
QD561205:56 7.1▼ Dn
QC492205:49▼ Dn
2U4550KSEA 071617Z 03004KT 2SM BR SCT001 OVC250 05/04 A3022 RMK AO2 TWR VIS 7 T00500039 $▲ Up
2U4550KPDX 071553Z 00000KT 6SM BR FEW120 BKN250 04/03 A3020 RMK AO2 SLP226 T00440033▲ Up
2S3414KSEA KPDX▼ Dn
QB325503:31▼ Dn
QA224603:21 20.9▼ Dn
2U1926KPDX 071453Z 31007KT 10SM BKN250 05/04 A3020 RMK AO2 SLP224 T00500039 51004▲ Up
2S0809KPDX▼ Dn
2U1926KSEA 071453Z 09003KT 3SM BCFG SCT001 BKN250 04/03 A3022 RMK AO2 TWR VIS 7 SLP242 VIS E-S 1 1/2 T00390028 50000 $▲ Up
2U1926KLAS 071456Z 20004KT 10SM CLR 13/M06 A3020 RMK AO2 SLP217 T01331061 53034▲ Up
2S0806KLAS KSEA▼ Dn
A31632CLEARED TO KSEA VIA SHEAD1 OAL LOMIA LKV HAWKZ7. SQUAWK 2412.▲ Up
Q01522[LINK ACK]▲ Up
Q00323[LINK TEST]▼ Dn


AIRCRAFT HISTORY
FLIGHT DATE FLIGHT NO. ORIGIN DESTINATION CLEARED ROUTE BLOCK TIME FLIGHT TIME FUEL USED PILOT
2020-11-13ASA901KSEA KBUR KSEA NEVJO SUMMA SMIGE SUNBE FRA REBRG MMTLY CRUUE EEAZY HIHWY MAIDD PEPRZ HEVVY ROKKR ZEPPE IVINS MIKEI RW082.1 hrs1.9 hrs11,576 lbDan Downs
2020-07-14ASA1202KPDX KSEA KPDX COUGA KRIEG KSEA0.7 hrs0.6 hrs4,211 lbMichael Roth
2020-05-23ASA522KPAE KPDX 0.9 hrs0.6 hrs5,096 lbCharles Harris
2020-02-01ASA201KIDA KPAE 1.7 hrs1.5 hrs8,300 lbJhan Jensen
2020-01-23ASA327KRNO KIDA 1.7 hrs1.6 hrs9,136 lbJhan Jensen
2020-01-15ASA99KEGE KRNO 1.9 hrs1.6 hrs9,698 lbJhan Jensen
2020-01-11ASA182KJAC KEGE 1.2 hrs0.9 hrs6,449 lbJhan Jensen
2020-01-03ASA68KGPI KJAC 1.4 hrs1 hrs5,452 lbJhan Jensen
2020-01-03ASA67CYYC KGPI 0.8 hrs0.7 hrs4,803 lbJhan Jensen
2019-11-24ASA1124KLAX CYYC 1.1 hrs0.8 hrs41,517 lbRandall Smith
2019-11-24ASA9722KSAN KLAX 0.6 hrs0.4 hrs3,440 lbKyle Weber
2019-11-24ASA135KSLC KSAN 1.6 hrs1.5 hrs8,755 lbJhan Jensen
2019-11-16ASA172KSEA KSLC 1.8 hrs1.6 hrs9,842 lbJhan Jensen
2019-11-07ASA955KLAS KSEA 2.5 hrs2.3 hrs13,750 lbAllan Burek